Terminal Aerodrome Forecast
Issued by NWS Shreveport, LA

Home | Current Version | Previous Version | Text Only | Print | Product List | Glossary On
Versions: 1 2 3 4 5 6 7 8 9 10 11 12
000
FTUS44 KSHV 211100
TAFTXK
TAF
KTXK 211136Z 2112/2212 VRB04KT P6SM BKN080 BKN120
     FM211400 18008KT P6SM BKN060 BKN100
     FM211600 20009KT P6SM VCTS SCT050CB SCT120 BKN250
     FM220100 26007KT 5SM -TSRA BKN050CB OVC100
     FM220800 32004KT 4SM BR OVC015=

USA.gov is the U.S. government's official web portal to all federal, state and local government web resources and services.